sensor_id;sensor_type;location;lat;lon;timestamp;pressure;altitude;pressure_sealevel;temperature;humidity
25560;BME280;13450;49.374;8.584;2022-11-20T00:01:44;100115.78;;;2.71;100.00
25560;BME280;13450;49.374;8.584;2022-11-20T00:04:10;100108.53;;;2.73;100.00
25560;BME280;13450;49.374;8.584;2022-11-20T00:06:36;100121.31;;;2.78;100.00
25560;BME280;13450;49.374;8.584;2022-11-20T00:09:02;100117.00;;;2.77;100.00
25560;BME280;13450;49.374;8.584;2022-11-20T00:11:29;100117.56;;;2.81;100.00
25560;BME280;13450;49.374;8.584;2022-11-20T00:13:56;100122.53;;;2.84;100.00
25560;BME280;13450;49.374;8.584;2022-11-20T00:16:24;100116.00;;;2.88;100.00
25560;BME280;13450;49.374;8.584;2022-11-20T00:18:52;100119.63;;;2.87;100.00
25560;BME280;13450;49.374;8.584;2022-11-20T00:21:23;100124.38;;;2.83;100.00
25560;BME280;13450;49.374;8.584;2022-11-20T00:23:49;100118.81;;;2.77;100.00
25560;BME280;13450;49.374;8.584;2022-11-20T00:26:17;100121.06;;;2.71;100.00
25560;BME280;13450;49.374;8.584;2022-11-20T00:28:44;100123.00;;;2.69;100.00
25560;BME280;13450;49.374;8.584;2022-11-20T00:31:15;100121.59;;;2.65;100.00
25560;BME280;13450;49.374;8.584;2022-11-20T00:33:41;100121.59;;;2.65;100.00
25560;BME280;13450;49.374;8.584;2022-11-20T00:36:09;100120.66;;;2.66;100.00
25560;BME280;13450;49.374;8.584;2022-11-20T00:38:35;100126.06;;;2.65;100.00
25560;BME280;13450;49.374;8.584;2022-11-20T00:41:04;100123.13;;;2.68;100.00
25560;BME280;13450;49.374;8.584;2022-11-20T00:43:29;100113.69;;;2.65;100.00
25560;BME280;13450;49.374;8.584;2022-11-20T00:45:59;100118.81;;;2.67;100.00
25560;BME280;13450;49.374;8.584;2022-11-20T00:48:24;100118.56;;;2.70;100.00
25560;BME280;13450;49.374;8.584;2022-11-20T00:50:50;100119.09;;;2.73;100.00
25560;BME280;13450;49.374;8.584;2022-11-20T00:53:18;100121.59;;;2.75;100.00
25560;BME280;13450;49.374;8.584;2022-11-20T00:55:52;100122.72;;;2.72;100.00
25560;BME280;13450;49.374;8.584;2022-11-20T00:58:17;100115.47;;;2.74;100.00
25560;BME280;13450;49.374;8.584;2022-11-20T01:00:43;100117.84;;;2.78;100.00
25560;BME280;13450;49.374;8.584;2022-11-20T01:03:08;100120.47;;;2.78;100.00
25560;BME280;13450;49.374;8.584;2022-11-20T01:05:34;100121.88;;;2.82;100.00
25560;BME280;13450;49.374;8.584;2022-11-20T01:08:00;100119.63;;;2.87;100.00
25560;BME280;13450;49.374;8.584;2022-11-20T01:10:26;100119.03;;;2.93;100.00
25560;BME280;13450;49.374;8.584;2022-11-20T01:12:51;100114.59;;;2.94;100.00
25560;BME280;13450;49.374;8.584;2022-11-20T01:15:36;100124.31;;;2.93;100.00
25560;BME280;13450;49.374;8.584;2022-11-20T01:18:02;100122.00;;;2.90;100.00
25560;BME280;13450;49.374;8.584;2022-11-20T01:20:27;100119.34;;;2.90;100.00
25560;BME280;13450;49.374;8.584;2022-11-20T01:22:52;100121.59;;;2.85;100.00
25560;BME280;13450;49.374;8.584;2022-11-20T01:25:17;100115.31;;;2.86;100.00
25560;BME280;13450;49.374;8.584;2022-11-20T01:27:43;100115.19;;;2.87;100.00
25560;BME280;13450;49.374;8.584;2022-11-20T01:30:14;100113.50;;;2.86;100.00
25560;BME280;13450;49.374;8.584;2022-11-20T01:32:39;100111.03;;;2.85;100.00
25560;BME280;13450;49.374;8.584;2022-11-20T01:35:07;100114.63;;;2.84;100.00
25560;BME280;13450;49.374;8.584;2022-11-20T01:37:34;100121.88;;;2.82;100.00
25560;BME280;13450;49.374;8.584;2022-11-20T01:40:00;100111.03;;;2.85;100.00
25560;BME280;13450;49.374;8.584;2022-11-20T01:42:25;100109.06;;;2.87;100.00
25560;BME280;13450;49.374;8.584;2022-11-20T01:48:14;100098.47;;;2.87;100.00
25560;BME280;13450;49.374;8.584;2022-11-20T01:50:41;100106.81;;;2.92;100.00
25560;BME280;13450;49.374;8.584;2022-11-20T01:53:11;100108.34;;;2.95;100.00
25560;BME280;13450;49.374;8.584;2022-11-20T01:55:45;100109.84;;;2.97;100.00
25560;BME280;13450;49.374;8.584;2022-11-20T01:58:13;100111.22;;;3.01;100.00
25560;BME280;13450;49.374;8.584;2022-11-20T02:00:40;100115.41;;;3.04;100.00
25560;BME280;13450;49.374;8.584;2022-11-20T02:03:10;100119.72;;;3.05;100.00
25560;BME280;13450;49.374;8.584;2022-11-20T02:08:15;100102.34;;;3.03;100.00
25560;BME280;13450;49.374;8.584;2022-11-20T02:10:40;100101.78;;;2.99;100.00
25560;BME280;13450;49.374;8.584;2022-11-20T02:13:06;100098.47;;;2.97;100.00
25560;BME280;13450;49.374;8.584;2022-11-20T02:15:49;100108.34;;;2.95;100.00
25560;BME280;13450;49.374;8.584;2022-11-20T02:18:17;100110.16;;;2.94;100.00
25560;BME280;13450;49.374;8.584;2022-11-20T02:20:45;100103.19;;;2.93;100.00
25560;BME280;13450;49.374;8.584;2022-11-20T02:23:27;100104.16;;;2.92;100.00
25560;BME280;13450;49.374;8.584;2022-11-20T02:25:56;100110.44;;;2.91;100.00
25560;BME280;13450;49.374;8.584;2022-11-20T02:28:23;100100.13;;;2.88;100.00
25560;BME280;13450;49.374;8.584;2022-11-20T02:30:48;100086.91;;;2.88;100.00
25560;BME280;13450;49.374;8.584;2022-11-20T02:33:14;100090.53;;;2.87;100.00
25560;BME280;13450;49.374;8.584;2022-11-20T02:35:43;100084.13;;;2.90;100.00
25560;BME280;13450;49.374;8.584;2022-11-20T02:38:09;100088.44;;;2.91;100.00
25560;BME280;13450;49.374;8.584;2022-11-20T02:40:35;100091.78;;;2.93;100.00
25560;BME280;13450;49.374;8.584;2022-11-20T02:43:00;100087.31;;;2.93;100.00
25560;BME280;13450;49.374;8.584;2022-11-20T02:45:25;100087.19;;;2.95;100.00
25560;BME280;13450;49.374;8.584;2022-11-20T02:47:51;100080.78;;;2.97;100.00
25560;BME280;13450;49.374;8.584;2022-11-20T02:50:16;100077.00;;;3.00;100.00
25560;BME280;13450;49.374;8.584;2022-11-20T02:52:42;100076.19;;;2.99;100.00
25560;BME280;13450;49.374;8.584;2022-11-20T02:55:10;100073.25;;;3.03;100.00
25560;BME280;13450;49.374;8.584;2022-11-20T02:57:35;100077.56;;;3.04;100.00
25560;BME280;13450;49.374;8.584;2022-11-20T03:00:03;100078.94;;;3.08;100.00
25560;BME280;13450;49.374;8.584;2022-11-20T03:02:32;100076.97;;;3.10;100.00
25560;BME280;13450;49.374;8.584;2022-11-20T03:04:58;100074.47;;;3.08;100.00
25560;BME280;13450;49.374;8.584;2022-11-20T03:07:23;100065.16;;;3.04;100.00
25560;BME280;13450;49.374;8.584;2022-11-20T03:09:49;100059.19;;;3.02;100.00
25560;BME280;13450;49.374;8.584;2022-11-20T03:12:14;100069.78;;;3.02;100.00
25560;BME280;13450;49.374;8.584;2022-11-20T03:14:41;100061.97;;;3.00;100.00
25560;BME280;13450;49.374;8.584;2022-11-20T03:17:07;100068.78;;;3.03;100.00
25560;BME280;13450;49.374;8.584;2022-11-20T03:19:32;100073.66;;;3.08;100.00
25560;BME280;13450;49.374;8.584;2022-11-20T03:21:59;100067.09;;;3.12;100.00
25560;BME280;13450;49.374;8.584;2022-11-20T03:24:25;100071.13;;;3.16;100.00
25560;BME280;13450;49.374;8.584;2022-11-20T03:26:50;100086.41;;;3.22;100.00
25560;BME280;13450;49.374;8.584;2022-11-20T03:29:18;100075.81;;;3.22;100.00
25560;BME280;13450;49.374;8.584;2022-11-20T03:31:43;100073.19;;;3.22;100.00
25560;BME280;13450;49.374;8.584;2022-11-20T03:34:10;100065.53;;;3.19;100.00
25560;BME280;13450;49.374;8.584;2022-11-20T03:36:38;100071.81;;;3.18;100.00
25560;BME280;13450;49.374;8.584;2022-11-20T03:39:03;100070.81;;;3.19;100.00
25560;BME280;13450;49.374;8.584;2022-11-20T03:41:31;100074.16;;;3.21;100.00
25560;BME280;13450;49.374;8.584;2022-11-20T03:44:01;100066.38;;;3.20;100.00
25560;BME280;13450;49.374;8.584;2022-11-20T03:46:29;100065.53;;;3.19;100.00
25560;BME280;13450;49.374;8.584;2022-11-20T03:48:55;100069.00;;;3.20;100.00
25560;BME280;13450;49.374;8.584;2022-11-20T03:51:25;100059.72;;;3.16;100.00
25560;BME280;13450;49.374;8.584;2022-11-20T03:53:53;100063.34;;;3.14;100.00
25560;BME280;13450;49.374;8.584;2022-11-20T03:56:20;100071.81;;;3.18;100.00
25560;BME280;13450;49.374;8.584;2022-11-20T03:58:46;100070.53;;;3.22;100.00
25560;BME280;13450;49.374;8.584;2022-11-20T04:01:19;100065.91;;;3.24;100.00
25560;BME280;13450;49.374;8.584;2022-11-20T04:03:44;100066.63;;;3.26;100.00
25560;BME280;13450;49.374;8.584;2022-11-20T04:06:21;100071.63;;;3.30;100.00
25560;BME280;13450;49.374;8.584;2022-11-20T04:08:49;100070.91;;;3.27;100.00
25560;BME280;13450;49.374;8.584;2022-11-20T04:13:53;100055.06;;;3.27;100.00
25560;BME280;13450;49.374;8.584;2022-11-20T04:16:19;100055.75;;;3.30;100.00
25560;BME280;13450;49.374;8.584;2022-11-20T04:18:45;100050.47;;;3.30;100.00
25560;BME280;13450;49.374;8.584;2022-11-20T04:21:10;100048.09;;;3.26;100.00
25560;BME280;13450;49.374;8.584;2022-11-20T04:23:38;100040.84;;;3.29;100.00
25560;BME280;13450;49.374;8.584;2022-11-20T04:26:08;100046.53;;;3.34;100.00
25560;BME280;13450;49.374;8.584;2022-11-20T04:28:35;100056.00;;;3.36;100.00
25560;BME280;13450;49.374;8.584;2022-11-20T04:31:11;100056.25;;;3.43;100.00
25560;BME280;13450;49.374;8.584;2022-11-20T04:33:37;100055.34;;;3.52;100.00
25560;BME280;13450;49.374;8.584;2022-11-20T04:36:07;100053.91;;;3.58;100.00
25560;BME280;13450;49.374;8.584;2022-11-20T04:38:35;100048.31;;;3.61;100.00
25560;BME280;13450;49.374;8.584;2022-11-20T04:41:03;100054.84;;;3.67;100.00
25560;BME280;13450;49.374;8.584;2022-11-20T04:43:29;100051.91;;;3.70;100.00
25560;BME280;13450;49.374;8.584;2022-11-20T04:45:56;100054.94;;;3.75;100.00
25560;BME280;13450;49.374;8.584;2022-11-20T04:48:22;100056.59;;;3.76;100.00
25560;BME280;13450;49.374;8.584;2022-11-20T04:50:47;100048.19;;;3.81;100.00
25560;BME280;13450;49.374;8.584;2022-11-20T04:53:13;100051.53;;;3.83;100.00
25560;BME280;13450;49.374;8.584;2022-11-20T04:55:38;100029.66;;;3.81;100.00
25560;BME280;13450;49.374;8.584;2022-11-20T04:58:03;100038.81;;;3.87;100.00
25560;BME280;13450;49.374;8.584;2022-11-20T05:00:29;100040.19;;;3.91;100.00
25560;BME280;13450;49.374;8.584;2022-11-20T05:02:54;100050.34;;;3.96;100.00
25560;BME280;13450;49.374;8.584;2022-11-20T05:05:20;100045.03;;;3.96;100.00
25560;BME280;13450;49.374;8.584;2022-11-20T05:07:45;100044.88;;;3.97;100.00
25560;BME280;13450;49.374;8.584;2022-11-20T05:10:10;100041.91;;;4.00;100.00
25560;BME280;13450;49.374;8.584;2022-11-20T05:12:35;100040.09;;;4.01;100.00
25560;BME280;13450;49.374;8.584;2022-11-20T05:15:01;100042.75;;;4.01;100.00
25560;BME280;13450;49.374;8.584;2022-11-20T05:17:26;100041.91;;;4.00;100.00
25560;BME280;13450;49.374;8.584;2022-11-20T05:19:51;100035.81;;;4.00;100.00
25560;BME280;13450;49.374;8.584;2022-11-20T05:22:17;100041.91;;;4.00;100.00
25560;BME280;13450;49.374;8.584;2022-11-20T05:24:42;100037.47;;;4.01;100.00
25560;BME280;13450;49.374;8.584;2022-11-20T05:27:07;100032.97;;;4.01;100.00
25560;BME280;13450;49.374;8.584;2022-11-20T05:29:33;100039.97;;;4.02;100.00
25560;BME280;13450;49.374;8.584;2022-11-20T05:31:58;100038.28;;;4.01;100.00
25560;BME280;13450;49.374;8.584;2022-11-20T05:34:25;100036.63;;;4.00;100.00
25560;BME280;13450;49.374;8.584;2022-11-20T05:36:51;100036.75;;;3.99;100.00
25560;BME280;13450;49.374;8.584;2022-11-20T05:39:16;100028.00;;;3.98;100.00
25560;BME280;13450;49.374;8.584;2022-11-20T05:41:41;100026.34;;;3.97;100.00
25560;BME280;13450;49.374;8.584;2022-11-20T05:44:07;100023.00;;;3.95;100.00
25560;BME280;13450;49.374;8.584;2022-11-20T05:46:32;100021.34;;;3.94;100.00
25560;BME280;13450;49.374;8.584;2022-11-20T05:48:57;100029.16;;;3.96;100.00
25560;BME280;13450;49.374;8.584;2022-11-20T05:51:24;100029.00;;;3.97;100.00
25560;BME280;13450;49.374;8.584;2022-11-20T05:53:49;100032.31;;;3.99;100.00
25560;BME280;13450;49.374;8.584;2022-11-20T05:56:18;100033.97;;;4.00;100.00
25560;BME280;13450;49.374;8.584;2022-11-20T05:58:44;100033.81;;;4.02;100.00
25560;BME280;13450;49.374;8.584;2022-11-20T06:01:11;100034.34;;;4.05;100.00
25560;BME280;13450;49.374;8.584;2022-11-20T06:03:37;100042.97;;;4.08;100.00
25560;BME280;13450;49.374;8.584;2022-11-20T06:06:09;100042.00;;;4.09;100.00
25560;BME280;13450;49.374;8.584;2022-11-20T06:08:35;100034.91;;;4.09;100.00
25560;BME280;13450;49.374;8.584;2022-11-20T06:11:08;100030.25;;;4.11;100.00
25560;BME280;13450;49.374;8.584;2022-11-20T06:13:34;100027.75;;;4.10;100.00
25560;BME280;13450;49.374;8.584;2022-11-20T06:16:02;100020.16;;;4.07;100.00
25560;BME280;13450;49.374;8.584;2022-11-20T06:18:30;100019.81;;;4.10;100.00
25560;BME280;13450;49.374;8.584;2022-11-20T06:23:31;100010.91;;;4.11;100.00
25560;BME280;13450;49.374;8.584;2022-11-20T06:26:00;100008.91;;;4.13;100.00
25560;BME280;13450;49.374;8.584;2022-11-20T06:28:26;100016.25;;;4.19;100.00
25560;BME280;13450;49.374;8.584;2022-11-20T06:30:52;100021.94;;;4.24;100.00
25560;BME280;13450;49.374;8.584;2022-11-20T06:33:17;100016.66;;;4.24;100.00
25560;BME280;13450;49.374;8.584;2022-11-20T06:35:42;100014.34;;;4.29;100.00
25560;BME280;13450;49.374;8.584;2022-11-20T06:38:10;100010.41;;;4.34;100.00
25560;BME280;13450;49.374;8.584;2022-11-20T06:40:35;100003.13;;;4.36;100.00
25560;BME280;13450;49.374;8.584;2022-11-20T06:43:00;99993.03;;;4.39;100.00
25560;BME280;13450;49.374;8.584;2022-11-20T06:45:28;100018.78;;;4.47;100.00
25560;BME280;13450;49.374;8.584;2022-11-20T06:47:53;100024.75;;;4.49;100.00
25560;BME280;13450;49.374;8.584;2022-11-20T06:50:19;100033.53;;;4.50;100.00
25560;BME280;13450;49.374;8.584;2022-11-20T06:52:46;100025.25;;;4.53;100.00
25560;BME280;13450;49.374;8.584;2022-11-20T06:55:11;100032.25;;;4.54;100.00
25560;BME280;13450;49.374;8.584;2022-11-20T06:57:37;100031.75;;;4.58;100.00
25560;BME280;13450;49.374;8.584;2022-11-20T07:00:02;100026.00;;;4.63;100.00
25560;BME280;13450;49.374;8.584;2022-11-20T07:02:28;100043.41;;;4.66;100.00
25560;BME280;13450;49.374;8.584;2022-11-20T07:04:53;100045.75;;;4.69;100.00
25560;BME280;13450;49.374;8.584;2022-11-20T07:07:18;100031.38;;;4.71;100.00
25560;BME280;13450;49.374;8.584;2022-11-20T07:09:44;100032.19;;;4.72;100.00
25560;BME280;13450;49.374;8.584;2022-11-20T07:12:09;100045.13;;;4.75;100.00
25560;BME280;13450;49.374;8.584;2022-11-20T07:14:34;100045.13;;;4.75;100.00
25560;BME280;13450;49.374;8.584;2022-11-20T07:17:01;100039.81;;;4.75;100.00
25560;BME280;13450;49.374;8.584;2022-11-20T07:19:27;100050.28;;;4.77;100.00
25560;BME280;13450;49.374;8.584;2022-11-20T07:21:52;100050.13;;;4.78;100.00
25560;BME280;13450;49.374;8.584;2022-11-20T07:24:17;100053.44;;;4.80;100.00
25560;BME280;13450;49.374;8.584;2022-11-20T07:26:48;100046.34;;;4.81;100.00
25560;BME280;13450;49.374;8.584;2022-11-20T07:29:14;100049.50;;;4.84;100.00
25560;BME280;13450;49.374;8.584;2022-11-20T07:31:40;100040.53;;;4.86;100.00
25560;BME280;13450;49.374;8.584;2022-11-20T07:34:05;100040.22;;;4.89;100.00
25560;BME280;13450;49.374;8.584;2022-11-20T07:36:30;100041.88;;;4.90;100.00
25560;BME280;13450;49.374;8.584;2022-11-20T07:38:56;100052.19;;;4.93;100.00
25560;BME280;13450;49.374;8.584;2022-11-20T07:41:21;100040.44;;;4.95;100.00
25560;BME280;13450;49.374;8.584;2022-11-20T07:43:46;100044.91;;;4.95;100.00
25560;BME280;13450;49.374;8.584;2022-11-20T07:46:11;100041.25;;;4.96;100.00
25560;BME280;13450;49.374;8.584;2022-11-20T07:48:37;100049.91;;;4.98;100.00
25560;BME280;13450;49.374;8.584;2022-11-20T07:51:02;100035.50;;;5.01;100.00
25560;BME280;13450;49.374;8.584;2022-11-20T07:53:27;100051.25;;;5.02;100.00
25560;BME280;13450;49.374;8.584;2022-11-20T07:55:53;100052.59;;;5.06;100.00
25560;BME280;13450;49.374;8.584;2022-11-20T07:58:19;100059.75;;;5.14;100.00
25560;BME280;13450;49.374;8.584;2022-11-20T08:00:45;100061.59;;;5.22;100.00
25560;BME280;13450;49.374;8.584;2022-11-20T08:03:10;100067.25;;;5.27;100.00
25560;BME280;13450;49.374;8.584;2022-11-20T08:05:38;100058.34;;;5.28;100.00
25560;BME280;13450;49.374;8.584;2022-11-20T08:08:03;100060.66;;;5.31;100.00
25560;BME280;13450;49.374;8.584;2022-11-20T08:10:29;100068.97;;;5.36;100.00
25560;BME280;13450;49.374;8.584;2022-11-20T08:12:54;100059.84;;;5.39;100.00
25560;BME280;13450;49.374;8.584;2022-11-20T08:15:39;100066.50;;;5.43;100.00
25560;BME280;13450;49.374;8.584;2022-11-20T08:18:11;100062.38;;;5.49;100.00
25560;BME280;13450;49.374;8.584;2022-11-20T08:20:37;100066.06;;;5.56;100.00
25560;BME280;13450;49.374;8.584;2022-11-20T08:23:07;100070.72;;;5.62;100.00
25560;BME280;13450;49.374;8.584;2022-11-20T08:25:35;100068.25;;;5.69;100.00
25560;BME280;13450;49.374;8.584;2022-11-20T08:28:03;100071.06;;;5.76;100.00
25560;BME280;13450;49.374;8.584;2022-11-20T08:30:31;100065.78;;;5.84;100.00
25560;BME280;13450;49.374;8.584;2022-11-20T08:33:05;100073.78;;;5.93;100.00
25560;BME280;13450;49.374;8.584;2022-11-20T08:35:34;100076.13;;;6.04;100.00
25560;BME280;13450;49.374;8.584;2022-11-20T08:38:01;100085.44;;;6.17;100.00
25560;BME280;13450;49.374;8.584;2022-11-20T08:40:27;100089.09;;;6.15;100.00
25560;BME280;13450;49.374;8.584;2022-11-20T08:42:52;100090.44;;;6.20;100.00
25560;BME280;13450;49.374;8.584;2022-11-20T08:45:19;100088.78;;;6.19;100.00
25560;BME280;13450;49.374;8.584;2022-11-20T08:47:45;100093.41;;;6.17;100.00
25560;BME280;13450;49.374;8.584;2022-11-20T08:50:13;100089.44;;;6.21;100.00
25560;BME280;13450;49.374;8.584;2022-11-20T08:52:41;100098.25;;;6.21;100.00
25560;BME280;13450;49.374;8.584;2022-11-20T08:55:07;100088.97;;;6.25;100.00
25560;BME280;13450;49.374;8.584;2022-11-20T08:57:34;100093.59;;;6.32;100.00
25560;BME280;13450;49.374;8.584;2022-11-20T09:00:02;100093.28;;;6.35;100.00
25560;BME280;13450;49.374;8.584;2022-11-20T09:02:28;100093.78;;;6.38;100.00
25560;BME280;13450;49.374;8.584;2022-11-20T09:04:53;100095.78;;;6.36;100.00
25560;BME280;13450;49.374;8.584;2022-11-20T09:07:21;100101.09;;;6.36;100.00
25560;BME280;13450;49.374;8.584;2022-11-20T09:09:46;100095.78;;;6.36;100.00
25560;BME280;13450;49.374;8.584;2022-11-20T09:12:12;100099.09;;;6.38;100.00
25560;BME280;13450;49.374;8.584;2022-11-20T09:14:38;100107.06;;;6.38;100.00
25560;BME280;13450;49.374;8.584;2022-11-20T09:17:04;100104.06;;;6.41;100.00
25560;BME280;13450;49.374;8.584;2022-11-20T09:19:29;100099.91;;;6.47;100.00
25560;BME280;13450;49.374;8.584;2022-11-20T09:21:54;100097.09;;;6.57;100.00
25560;BME280;13450;49.374;8.584;2022-11-20T09:24:19;100102.88;;;6.69;100.00
25560;BME280;13450;49.374;8.584;2022-11-20T09:26:47;100098.41;;;6.78;100.00
25560;BME280;13450;49.374;8.584;2022-11-20T09:29:13;100097.38;;;6.87;100.00
25560;BME280;13450;49.374;8.584;2022-11-20T09:31:40;100092.41;;;6.84;100.00
25560;BME280;13450;49.374;8.584;2022-11-20T09:34:06;100089.72;;;6.92;100.00
25560;BME280;13450;49.374;8.584;2022-11-20T09:36:31;100088.41;;;6.88;100.00
25560;BME280;13450;49.374;8.584;2022-11-20T09:38:56;100094.19;;;6.92;100.00
25560;BME280;13450;49.374;8.584;2022-11-20T09:52:30;100098.41;;;6.86;100.00
25560;BME280;13450;49.374;8.584;2022-11-20T09:54:54;100102.03;;;6.85;100.00
25560;BME280;13450;49.374;8.584;2022-11-20T09:57:33;100100.69;;;6.89;100.00
25560;BME280;13450;49.374;8.584;2022-11-20T10:00:03;100103.53;;;6.88;100.00
25560;BME280;13450;49.374;8.584;2022-11-20T10:05:19;100102.69;;;6.96;100.00
25560;BME280;13450;49.374;8.584;2022-11-20T10:07:54;100092.69;;;6.98;100.00
25560;BME280;13450;49.374;8.584;2022-11-20T10:10:31;100096.03;;;7.00;100.00
25560;BME280;13450;49.374;8.584;2022-11-20T10:13:17;100097.69;;;7.01;100.00
25560;BME280;13450;49.374;8.584;2022-11-20T10:16:04;100095.19;;;7.07;100.00
25560;BME280;13450;49.374;8.584;2022-11-20T10:29:32;100079.84;;;7.18;100.00
25560;BME280;13450;49.374;8.584;2022-11-20T10:32:04;100089.47;;;7.19;100.00
25560;BME280;13450;49.374;8.584;2022-11-20T10:34:58;100073.66;;;7.26;100.00
25560;BME280;13450;49.374;8.584;2022-11-20T10:37:26;100078.31;;;7.32;100.00
25560;BME280;13450;49.374;8.584;2022-11-20T10:42:38;100066.88;;;7.55;100.00
25560;BME280;13450;49.374;8.584;2022-11-20T10:48:19;100063.13;;;7.72;100.00
25560;BME280;13450;49.374;8.584;2022-11-20T10:51:02;100070.63;;;7.69;100.00
25560;BME280;13450;49.374;8.584;2022-11-20T10:53:42;100067.16;;;7.68;100.00
25560;BME280;13450;49.374;8.584;2022-11-20T10:56:27;100057.19;;;7.62;100.00
25560;BME280;13450;49.374;8.584;2022-11-20T11:02:00;100058.34;;;7.59;100.00
25560;BME280;13450;49.374;8.584;2022-11-20T11:04:32;100060.03;;;7.61;100.00
25560;BME280;13450;49.374;8.584;2022-11-20T11:07:10;100060.09;;;7.76;100.00
25560;BME280;13450;49.374;8.584;2022-11-20T11:09:43;100047.38;;;8.09;100.00
25560;BME280;13450;49.374;8.584;2022-11-20T11:12:09;100040.84;;;9.34;100.00
25560;BME280;13450;49.374;8.584;2022-11-20T11:14:43;100024.97;;;9.85;100.00
25560;BME280;13450;49.374;8.584;2022-11-20T11:19:45;100028.72;;;10.41;100.00
25560;BME280;13450;49.374;8.584;2022-11-20T11:22:16;100013.22;;;10.51;100.00
25560;BME280;13450;49.374;8.584;2022-11-20T11:24:51;100016.66;;;10.45;100.00
25560;BME280;13450;49.374;8.584;2022-11-20T11:27:17;100015.19;;;10.71;100.00
25560;BME280;13450;49.374;8.584;2022-11-20T11:29:42;100019.25;;;11.51;100.00
25560;BME280;13450;49.374;8.584;2022-11-20T11:32:11;100014.03;;;12.19;100.00
25560;BME280;13450;49.374;8.584;2022-11-20T11:34:37;100014.66;;;12.21;100.00
25560;BME280;13450;49.374;8.584;2022-11-20T11:37:03;100023.72;;;12.06;100.00
25560;BME280;13450;49.374;8.584;2022-11-20T11:39:31;100016.00;;;11.76;100.00
25560;BME280;13450;49.374;8.584;2022-11-20T11:41:58;100012.09;;;11.78;100.00
25560;BME280;13450;49.374;8.584;2022-11-20T11:44:31;100011.47;;;11.76;100.00
25560;BME280;13450;49.374;8.584;2022-11-20T11:48:04;100014.34;;;11.61;100.00
25560;BME280;13450;49.374;8.584;2022-11-20T11:53:13;100006.84;;;10.88;100.00
25560;BME280;13450;49.374;8.584;2022-11-20T11:55:51;100003.63;;;10.42;100.00
25560;BME280;13450;49.374;8.584;2022-11-20T12:01:07;100006.84;;;10.52;100.00
25560;BME280;13450;49.374;8.584;2022-11-20T12:03:38;99994.16;;;10.68;100.00
25560;BME280;13450;49.374;8.584;2022-11-20T12:06:13;99991.09;;;10.71;100.00
25560;BME280;13450;49.374;8.584;2022-11-20T12:09:04;99993.09;;;10.62;100.00
25560;BME280;13450;49.374;8.584;2022-11-20T12:16:37;99987.78;;;14.87;100.00
25560;BME280;13450;49.374;8.584;2022-11-20T12:19:09;99985.81;;;17.76;100.00
25560;BME280;13450;49.374;8.584;2022-11-20T12:35:32;100000.13;;;19.74;63.30
25560;BME280;13450;49.374;8.584;2022-11-20T12:43:23;99995.63;;;15.26;92.54
25560;BME280;13450;49.374;8.584;2022-11-20T12:48:42;99982.16;;;14.25;100.00
25560;BME280;13450;49.374;8.584;2022-11-20T12:56:55;99984.22;;;13.33;100.00
25560;BME280;13450;49.374;8.584;2022-11-20T13:02:25;99986.53;;;17.25;82.92
25560;BME280;13450;49.374;8.584;2022-11-20T13:07:21;99975.81;;;16.05;90.17
25560;BME280;13450;49.374;8.584;2022-11-20T13:09:48;99974.38;;;14.61;90.51
25560;BME280;13450;49.374;8.584;2022-11-20T13:15:19;99961.50;;;12.84;100.00
25560;BME280;13450;49.374;8.584;2022-11-20T13:17:51;99964.09;;;12.18;100.00
25560;BME280;13450;49.374;8.584;2022-11-20T13:20:19;99965.47;;;11.66;100.00
25560;BME280;13450;49.374;8.584;2022-11-20T13:22:55;99966.31;;;11.73;100.00
25560;BME280;13450;49.374;8.584;2022-11-20T13:25:25;99950.03;;;11.82;100.00
25560;BME280;13450;49.374;8.584;2022-11-20T13:27:51;99950.03;;;11.88;100.00
25560;BME280;13450;49.374;8.584;2022-11-20T13:30:21;99945.56;;;12.09;100.00
25560;BME280;13450;49.374;8.584;2022-11-20T13:32:52;99938.47;;;12.42;100.00
25560;BME280;13450;49.374;8.584;2022-11-20T13:35:27;99950.78;;;12.77;100.00
25560;BME280;13450;49.374;8.584;2022-11-20T13:38:10;99936.69;;;12.88;100.00
25560;BME280;13450;49.374;8.584;2022-11-20T13:40:37;99930.28;;;12.89;100.00
25560;BME280;13450;49.374;8.584;2022-11-20T13:43:18;99941.16;;;12.42;100.00
25560;BME280;13450;49.374;8.584;2022-11-20T13:45:54;99945.25;;;11.57;100.00
25560;BME280;13450;49.374;8.584;2022-11-20T13:48:22;99940.75;;;11.71;100.00
25560;BME280;13450;49.374;8.584;2022-11-20T13:51:03;99936.44;;;11.70;100.00
25560;BME280;13450;49.374;8.584;2022-11-20T13:56:25;99926.47;;;11.36;100.00
25560;BME280;13450;49.374;8.584;2022-11-20T13:59:24;99938.41;;;10.78;100.00
25560;BME280;13450;49.374;8.584;2022-11-20T14:01:54;99933.75;;;10.87;100.00
25560;BME280;13450;49.374;8.584;2022-11-20T14:04:29;99943.16;;;10.76;100.00
25560;BME280;13450;49.374;8.584;2022-11-20T14:06:57;99933.47;;;10.40;100.00
25560;BME280;13450;49.374;8.584;2022-11-20T14:09:31;99937.13;;;10.03;100.00
25560;BME280;13450;49.374;8.584;2022-11-20T14:11:56;99928.75;;;9.85;100.00
25560;BME280;13450;49.374;8.584;2022-11-20T14:14:29;99925.72;;;9.66;100.00
25560;BME280;13450;49.374;8.584;2022-11-20T14:17:20;99926.66;;;9.58;100.00
25560;BME280;13450;49.374;8.584;2022-11-20T14:19:48;99923.47;;;9.26;100.00
25560;BME280;13450;49.374;8.584;2022-11-20T14:22:23;99921.94;;;9.16;100.00
25560;BME280;13450;49.374;8.584;2022-11-20T14:27:44;99915.56;;;8.96;100.00
25560;BME280;13450;49.374;8.584;2022-11-20T14:30:18;99920.59;;;8.90;100.00
25560;BME280;13450;49.374;8.584;2022-11-20T14:32:46;99912.25;;;8.79;100.00
25560;BME280;13450;49.374;8.584;2022-11-20T14:35:29;99906.00;;;8.71;100.00
25560;BME280;13450;49.374;8.584;2022-11-20T14:37:55;99906.75;;;8.65;100.00